Time;durP1;ratioP1;P1;durP2;ratioP2;P2;SDS_P1;SDS_P2;PMS_P1;PMS_P2;Temp;Humidity;BMP_temperature;BMP_pressure;BME280_temperature;BME280_humidity;BME280_pressure;Samples;Min_cycle;Max_cycle;Signal;HPM_P1;HPM_P2
2023/01/27 00:02:21;;;;;;;14.20;11.17;;;;;;;0.84;89.71;96677.38;5114433;28;20240;-59
2023/01/27 00:04:48;;;;;;;14.43;11.57;;;;;;;0.82;89.35;96678.34;5114554;28;20204;-59
2023/01/27 00:07:14;;;;;;;16.27;12.27;;;;;;;0.79;89.47;96683.72;5113525;28;20207;-62
2023/01/27 00:09:41;;;;;;;14.43;11.00;;;;;;;0.83;91.10;96673.06;5113696;28;20616;-59
2023/01/27 00:15:03;;;;;;;15.97;11.07;;;;;;;0.85;91.38;96673.00;5114273;28;20257;-59
2023/01/27 00:17:31;;;;;;;15.10;10.90;;;;;;;0.77;89.74;96676.03;5114429;28;20284;-61
2023/01/27 00:19:58;;;;;;;15.53;11.83;;;;;;;0.87;89.75;96676.34;5113922;28;20243;-65
2023/01/27 00:25:09;;;;;;;15.20;11.80;;;;;;;0.87;87.78;96673.75;5113580;28;20741;-60
2023/01/27 00:27:35;;;;;;;15.23;12.23;;;;;;;0.75;88.50;96677.84;5114318;28;20208;-59
2023/01/27 00:30:03;;;;;;;15.67;12.10;;;;;;;0.72;88.52;96680.63;5128136;28;20200;-62
2023/01/27 00:35:16;;;;;;;15.23;12.10;;;;;;;0.68;89.77;96670.44;5140808;28;20190;-69
2023/01/27 00:37:42;;;;;;;15.30;11.43;;;;;;;0.68;88.99;96673.06;5120410;28;20230;-60
2023/01/27 00:40:10;;;;;;;14.00;10.30;;;;;;;0.71;87.98;96678.94;5115498;28;20683;-60
2023/01/27 00:42:36;;;;;;;13.40;10.43;;;;;;;0.68;87.77;96668.69;5114655;28;20214;-59
2023/01/27 00:47:48;;;;;;;12.33;9.90;;;;;;;0.65;87.28;96665.41;5113465;28;20297;-60
2023/01/27 00:50:16;;;;;;;13.33;9.67;;;;;;;0.72;86.46;96670.22;5113968;28;20214;-60
2023/01/27 00:52:43;;;;;;;13.17;9.80;;;;;;;0.69;87.32;96659.13;5095873;28;20263;-60
2023/01/27 00:55:10;;;;;;;15.27;11.30;;;;;;;0.60;87.88;96660.47;5112890;28;20211;-59
2023/01/27 00:57:37;;;;;;;13.73;10.57;;;;;;;0.65;88.54;96658.44;5114207;28;20208;-61
2023/01/27 01:00:04;;;;;;;14.60;10.87;;;;;;;0.74;89.67;96657.13;5113993;28;20239;-59
2023/01/27 01:02:30;;;;;;;14.87;11.00;;;;;;;0.74;88.64;96652.75;5113794;28;20239;-61
2023/01/27 01:04:57;;;;;;;14.87;10.80;;;;;;;0.74;88.81;96647.56;5094730;28;20211;-58
2023/01/27 01:07:25;;;;;;;13.83;10.63;;;;;;;0.67;88.05;96661.81;5113240;28;20216;-59
2023/01/27 01:09:51;;;;;;;14.30;10.87;;;;;;;0.72;88.53;96654.59;5112664;28;20223;-59
2023/01/27 01:12:17;;;;;;;12.93;10.50;;;;;;;0.68;88.25;96662.63;5113061;28;20211;-59
2023/01/27 01:14:44;;;;;;;12.33;9.70;;;;;;;0.64;87.98;96667.16;5112835;28;20199;-59
2023/01/27 01:17:10;;;;;;;8.67;7.10;;;;;;;0.63;86.21;96675.91;5113334;28;20219;-60
2023/01/27 01:19:37;;;;;;;10.80;8.30;;;;;;;0.63;87.27;96665.50;5112609;28;20238;-61
2023/01/27 01:22:04;;;;;;;10.13;7.40;;;;;;;0.61;86.41;96661.28;5113106;28;20202;-61
2023/01/27 01:24:31;;;;;;;9.13;7.50;;;;;;;0.60;86.61;96659.63;5112573;28;20202;-60
2023/01/27 01:26:59;;;;;;;9.63;8.37;;;;;;;0.64;87.46;96661.16;5113309;28;20204;-60
2023/01/27 01:29:25;;;;;;;10.67;8.47;;;;;;;0.64;86.56;96659.38;5111943;28;20232;-61
2023/01/27 01:31:52;;;;;;;9.77;8.30;;;;;;;0.68;87.39;96668.69;5112902;28;20203;-58
2023/01/27 01:34:18;;;;;;;9.77;8.07;;;;;;;0.62;87.93;96663.81;5112712;28;20194;-59
2023/01/27 01:36:45;;;;;;;10.23;8.23;;;;;;;0.52;87.01;96657.44;5112489;28;20777;-62
2023/01/27 01:39:11;;;;;;;11.23;8.60;;;;;;;0.55;86.84;96649.47;5112726;28;20541;-58
2023/01/27 01:41:39;;;;;;;9.73;8.43;;;;;;;0.50;87.30;96654.06;5112829;28;20219;-63
2023/01/27 01:44:20;;;;;;;10.10;8.10;;;;;;;0.55;87.52;96657.25;5113295;28;20208;-59
2023/01/27 01:46:46;;;;;;;9.43;7.90;;;;;;;0.56;87.67;96648.56;5112925;27;20196;-59
2023/01/27 01:49:13;;;;;;;10.93;8.00;;;;;;;0.53;87.85;96640.91;5112640;28;20211;-60
2023/01/27 01:51:42;;;;;;;10.30;8.07;;;;;;;0.56;87.22;96638.13;5114344;28;20222;-60
2023/01/27 01:54:12;;;;;;;10.17;7.87;;;;;;;0.48;87.61;96640.31;5115566;28;20219;-59
2023/01/27 01:56:43;;;;;;;7.93;7.03;;;;;;;0.61;87.15;96636.13;5115511;28;20211;-61
2023/01/27 01:59:15;;;;;;;9.07;7.43;;;;;;;0.63;86.52;96634.28;5115659;28;20222;-59
2023/01/27 02:01:42;;;;;;;7.57;6.77;;;;;;;0.56;86.52;96645.94;5113427;28;20235;-60
2023/01/27 02:04:11;;;;;;;12.97;7.63;;;;;;;0.47;85.83;96643.81;5113915;28;20291;-61
2023/01/27 02:06:40;;;;;;;7.77;6.30;;;;;;;0.52;86.17;96636.63;5113562;28;20203;-60
2023/01/27 02:09:07;;;;;;;7.87;6.67;;;;;;;0.53;86.35;96638.31;5113283;28;20212;-59
2023/01/27 02:11:34;;;;;;;7.43;6.63;;;;;;;0.55;86.05;96639.06;5112935;28;20527;-61
2023/01/27 02:14:02;;;;;;;8.90;6.77;;;;;;;0.55;84.59;96626.03;5115017;28;20203;-60
2023/01/27 02:16:29;;;;;;;9.47;6.50;;;;;;;0.54;85.23;96621.75;5114925;28;20200;-60
2023/01/27 02:18:55;;;;;;;7.70;6.70;;;;;;;0.58;85.44;96628.47;5115174;28;20204;-61
2023/01/27 02:21:22;;;;;;;7.60;6.80;;;;;;;0.60;84.94;96618.84;5116063;28;20218;-60
2023/01/27 02:23:55;;;;;;;7.57;6.67;;;;;;;0.58;85.71;96622.44;5115646;28;20211;-60
2023/01/27 02:26:25;;;;;;;7.87;6.93;;;;;;;0.56;85.19;96625.13;5116386;28;20218;-60
2023/01/27 02:28:54;;;;;;;8.30;7.07;;;;;;;0.58;85.44;96623.28;5113909;28;20195;-60
2023/01/27 02:31:21;;;;;;;8.90;7.07;;;;;;;0.60;84.97;96623.19;5111998;28;20288;-60
2023/01/27 02:33:47;;;;;;;8.63;7.20;;;;;;;0.58;84.90;96623.28;5112199;28;20243;-60
2023/01/27 02:36:16;;;;;;;7.47;6.67;;;;;;;0.53;84.38;96614.91;5111705;28;20196;-59
2023/01/27 02:38:46;;;;;;;9.10;6.83;;;;;;;0.62;84.53;96618.75;5111808;28;20201;-59
2023/01/27 02:41:17;;;;;;;7.67;6.40;;;;;;;0.59;84.51;96624.97;5109949;28;21176;-60
2023/01/27 02:43:45;;;;;;;6.97;6.30;;;;;;;0.54;84.32;96634.75;5111447;28;20207;-61
2023/01/27 02:46:11;;;;;;;7.43;6.30;;;;;;;0.56;84.34;96617.34;5112364;28;20199;-59
2023/01/27 02:48:38;;;;;;;7.97;7.17;;;;;;;0.54;84.54;96623.50;5112651;28;20211;-59
2023/01/27 02:51:05;;;;;;;8.53;6.53;;;;;;;0.44;85.06;96617.97;5111275;28;20201;-59
2023/01/27 02:53:31;;;;;;;7.43;6.60;;;;;;;0.49;85.61;96614.22;5112087;28;20215;-61
2023/01/27 02:55:58;;;;;;;7.80;5.80;;;;;;;0.53;85.17;96625.31;5110649;28;20202;-61
2023/01/27 02:58:24;;;;;;;7.67;6.10;;;;;;;0.60;84.64;96615.41;5111934;28;20206;-60
2023/01/27 03:00:52;;;;;;;7.17;5.93;;;;;;;0.45;85.08;96615.31;5111668;28;20239;-59
2023/01/27 03:03:19;;;;;;;8.33;5.80;;;;;;;0.49;85.38;96606.41;5130069;28;20184;-60
2023/01/27 03:05:46;;;;;;;7.60;6.50;;;;;;;0.50;86.17;96609.84;5134538;28;20190;-61
2023/01/27 03:08:12;;;;;;;7.10;6.40;;;;;;;0.53;85.33;96609.69;5137144;28;20181;-59
2023/01/27 03:10:39;;;;;;;7.27;6.50;;;;;;;0.60;85.89;96612.81;5130567;28;20202;-60
2023/01/27 03:13:05;;;;;;;6.37;5.73;;;;;;;0.55;85.54;96605.22;5118988;28;20202;-59
2023/01/27 03:18:17;;;;;;;7.67;6.30;;;;;;;0.67;85.57;96608.94;5116286;28;20562;-61
2023/01/27 03:20:45;;;;;;;8.30;6.57;;;;;;;0.66;85.82;96604.66;5115466;28;20222;-60
2023/01/27 03:23:12;;;;;;;8.77;7.23;;;;;;;0.69;86.09;96602.72;5115378;28;20206;-61
2023/01/27 03:25:42;;;;;;;8.13;6.60;;;;;;;0.66;86.24;96602.88;5114799;28;20202;-60
2023/01/27 03:28:09;;;;;;;8.57;7.20;;;;;;;0.64;85.96;96604.72;5114730;28;20195;-59
2023/01/27 03:30:35;;;;;;;7.70;6.57;;;;;;;0.71;85.54;96608.66;5115329;28;20199;-60
2023/01/27 03:33:04;;;;;;;8.70;7.13;;;;;;;0.64;85.44;96599.50;5115140;28;20196;-60
2023/01/27 03:35:38;;;;;;;7.73;6.70;;;;;;;0.64;84.58;96599.50;5116781;28;20203;-59
2023/01/27 03:46:18;;;;;;;8.00;6.50;;;;;;;0.66;85.77;96596.84;5115679;27;20252;-60
2023/01/27 03:48:50;;;;;;;7.80;7.00;;;;;;;0.65;85.81;96590.78;5114959;28;20196;-62
2023/01/27 03:51:19;;;;;;;8.20;6.40;;;;;;;0.65;86.70;96590.78;5114980;28;20230;-61
2023/01/27 03:53:46;;;;;;;8.73;6.57;;;;;;;0.64;85.47;96593.50;5115699;27;20521;-61
2023/01/27 03:56:13;;;;;;;8.20;6.33;;;;;;;0.67;85.23;96596.78;5113413;28;20199;-60
2023/01/27 03:58:40;;;;;;;7.77;6.40;;;;;;;0.69;86.19;96597.50;5114367;28;20650;-60
2023/01/27 04:01:12;;;;;;;7.70;6.90;;;;;;;0.62;85.20;96593.56;5114087;28;20257;-61
2023/01/27 04:09:11;;;;;;;7.73;6.37;;;;;;;0.67;85.22;96594.16;5113935;28;20207;-61
2023/01/27 04:11:57;;;;;;;8.23;7.10;;;;;;;0.73;85.27;96598.19;5115082;27;20204;-60
2023/01/27 04:14:26;;;;;;;9.20;7.70;;;;;;;0.72;85.80;96589.53;5114271;28;20593;-61
2023/01/27 04:16:55;;;;;;;9.73;7.23;;;;;;;0.71;85.50;96597.44;5114697;28;20212;-62
2023/01/27 04:19:22;;;;;;;8.60;7.33;;;;;;;0.78;86.25;96594.38;5125351;28;20862;-62
2023/01/27 04:21:50;;;;;;;9.70;7.43;;;;;;;0.78;85.95;96596.19;5127729;28;20216;-60
2023/01/27 04:24:21;;;;;;;9.63;7.73;;;;;;;0.75;85.83;96604.97;5130648;28;20213;-61
2023/01/27 04:26:48;;;;;;;9.43;8.37;;;;;;;0.78;85.97;96610.00;5121687;28;20231;-63
2023/01/27 04:29:15;;;;;;;9.90;8.33;;;;;;;0.74;86.50;96608.53;5114123;28;20202;-62
2023/01/27 04:31:42;;;;;;;8.53;7.43;;;;;;;0.75;86.41;96615.38;5114285;28;20216;-61
2023/01/27 04:34:10;;;;;;;10.07;8.07;;;;;;;0.73;85.72;96608.59;5113979;28;20222;-61
2023/01/27 04:36:37;;;;;;;9.63;7.37;;;;;;;0.73;86.49;96609.44;5113944;28;20196;-61
2023/01/27 04:39:04;;;;;;;10.67;8.30;;;;;;;0.67;86.52;96604.56;5113447;28;20212;-62
2023/01/27 04:41:31;;;;;;;10.70;8.00;;;;;;;0.74;86.93;96605.06;5113618;28;20235;-62
2023/01/27 04:43:57;;;;;;;8.80;7.90;;;;;;;0.77;87.00;96604.91;5113666;28;20222;-62
2023/01/27 04:46:24;;;;;;;10.63;8.17;;;;;;;0.84;87.86;96601.03;5113295;28;20588;-61
2023/01/27 04:48:51;;;;;;;11.20;8.63;;;;;;;0.83;87.88;96602.78;5094777;28;20217;-61
2023/01/27 04:51:17;;;;;;;10.33;8.10;;;;;;;0.82;86.61;96593.28;5113185;28;20663;-60
2023/01/27 04:53:44;;;;;;;8.87;7.60;;;;;;;0.82;87.63;96588.09;5113736;28;20223;-59
2023/01/27 04:56:23;;;;;;;9.17;7.97;;;;;;;0.83;87.96;96583.72;5112691;28;20203;-60
2023/01/27 04:58:49;;;;;;;10.17;7.83;;;;;;;0.77;87.84;96589.28;5113485;28;20206;-59
2023/01/27 05:01:16;;;;;;;10.93;9.07;;;;;;;0.70;88.32;96585.34;5112681;28;20246;-61
2023/01/27 05:03:42;;;;;;;12.37;9.27;;;;;;;0.74;88.19;96590.31;5113586;28;20202;-60
2023/01/27 05:06:09;;;;;;;12.37;9.17;;;;;;;0.73;88.98;96591.22;5113125;28;20209;-63
2023/01/27 05:08:36;;;;;;;12.37;9.03;;;;;;;0.69;89.35;96587.09;5113547;28;20216;-61
2023/01/27 05:11:02;;;;;;;11.03;9.33;;;;;;;0.61;90.16;96593.63;5112721;28;20208;-61
2023/01/27 05:13:30;;;;;;;12.03;9.37;;;;;;;0.62;89.96;96596.16;5112975;28;20200;-62
2023/01/27 05:16:04;;;;;;;11.63;8.80;;;;;;;0.68;89.97;96593.22;5112961;28;20201;-60
2023/01/27 05:18:31;;;;;;;11.83;8.80;;;;;;;0.65;90.86;96595.16;5113093;28;20531;-62
2023/01/27 05:20:58;;;;;;;10.33;8.70;;;;;;;0.72;91.04;96597.34;5113339;28;20247;-61
2023/01/27 05:23:37;;;;;;;14.03;9.93;;;;;;;0.71;91.72;96600.03;5113042;28;20541;-61
2023/01/27 05:26:09;;;;;;;12.87;10.03;;;;;;;0.71;92.48;96598.25;5112678;28;20197;-62
2023/01/27 05:28:39;;;;;;;12.90;10.40;;;;;;;0.74;92.45;96594.66;5112798;28;20214;-61
2023/01/27 05:31:08;;;;;;;12.27;9.97;;;;;;;0.75;93.09;96597.16;5112686;28;20202;-63
2023/01/27 05:33:35;;;;;;;12.77;10.33;;;;;;;0.74;93.57;96603.31;5112063;28;20235;-60
2023/01/27 05:36:03;;;;;;;14.63;10.90;;;;;;;0.71;94.02;96600.03;5122491;28;20222;-66
2023/01/27 05:38:30;;;;;;;10.90;9.50;;;;;;;0.78;96.17;96594.38;5137221;28;20186;-63
2023/01/27 05:40:59;;;;;;;12.90;10.40;;;;;;;0.72;93.95;96594.75;5138216;28;20211;-68
2023/01/27 05:43:26;;;;;;;12.83;10.17;;;;;;;0.75;93.89;96597.16;5129825;28;20201;-61
2023/01/27 05:46:01;;;;;;;11.47;9.83;;;;;;;0.67;94.61;96604.56;5115585;27;20207;-61
2023/01/27 05:48:28;;;;;;;12.43;10.30;;;;;;;0.71;94.86;96606.06;5111930;28;20250;-62
2023/01/27 05:50:55;;;;;;;14.73;10.67;;;;;;;0.69;95.46;96607.06;5111957;28;20208;-61
2023/01/27 05:53:22;;;;;;;11.43;10.03;;;;;;;0.73;95.21;96613.81;5112852;28;20208;-61
2023/01/27 05:55:49;;;;;;;12.83;10.80;;;;;;;0.74;96.31;96615.50;5117050;28;21454;-63
2023/01/27 05:58:16;;;;;;;16.57;11.50;;;;;;;0.72;96.40;96620.75;5124398;28;20213;-61
2023/01/27 06:00:42;;;;;;;13.23;11.10;;;;;;;0.67;96.38;96625.41;5111876;28;21473;-62
2023/01/27 06:03:10;;;;;;;14.97;10.73;;;;;;;0.72;96.43;96623.38;5112748;28;20231;-61
2023/01/27 06:05:37;;;;;;;12.60;10.80;;;;;;;0.77;96.89;96616.16;5112541;28;20207;-63
2023/01/27 06:08:04;;;;;;;11.47;10.23;;;;;;;0.67;96.91;96622.78;5112431;28;20234;-64
2023/01/27 06:10:31;;;;;;;13.70;11.13;;;;;;;0.65;98.12;96622.03;5111929;28;20203;-62
2023/01/27 06:12:57;;;;;;;12.07;10.30;;;;;;;0.68;97.75;96631.41;5111103;28;20632;-61
2023/01/27 06:15:24;;;;;;;13.03;11.10;;;;;;;0.66;98.27;96628.91;5112135;28;20265;-61
2023/01/27 06:17:51;;;;;;;12.67;10.77;;;;;;;0.64;99.28;96622.94;5111972;28;20662;-64
2023/01/27 06:20:19;;;;;;;13.37;10.93;;;;;;;0.69;99.12;96614.88;5112662;28;20208;-60
2023/01/27 06:22:45;;;;;;;11.73;10.47;;;;;;;0.66;99.32;96620.25;5111972;28;20232;-62
2023/01/27 06:25:12;;;;;;;11.53;10.33;;;;;;;0.55;100.00;96620.00;5111285;28;20295;-61
2023/01/27 06:27:38;;;;;;;11.20;10.00;;;;;;;0.52;100.00;96617.56;5093940;28;20671;-61
2023/01/27 06:30:07;;;;;;;11.20;10.00;;;;;;;0.35;100.00;96626.28;5111500;28;20218;-63
2023/01/27 06:32:35;;;;;;;14.50;11.37;;;;;;;0.39;100.00;96633.00;5112489;28;20202;-62
2023/01/27 06:35:02;;;;;;;13.60;10.70;;;;;;;0.31;100.00;96637.75;5112099;28;20203;-61
2023/01/27 06:37:30;;;;;;;13.33;11.17;;;;;;;0.35;100.00;96639.28;5112094;28;20659;-63
2023/01/27 06:39:56;;;;;;;12.43;10.93;;;;;;;0.38;100.00;96631.31;5111852;28;20208;-60
2023/01/27 06:42:23;;;;;;;12.50;10.80;;;;;;;0.28;100.00;96646.56;5112514;28;20223;-62
2023/01/27 06:44:51;;;;;;;13.23;10.47;;;;;;;0.26;100.00;96643.19;5111700;28;20531;-62
2023/01/27 06:47:18;;;;;;;14.53;11.23;;;;;;;0.27;100.00;96641.44;5112681;28;20511;-61
2023/01/27 06:49:44;;;;;;;13.53;10.37;;;;;;;0.23;100.00;96647.72;5112344;28;20206;-61
2023/01/27 06:52:12;;;;;;;11.83;9.80;;;;;;;0.20;100.00;96642.69;5112113;28;20512;-60
2023/01/27 06:54:40;;;;;;;12.30;10.23;;;;;;;0.16;100.00;96648.97;5112816;28;20211;-62
2023/01/27 06:57:09;;;;;;;14.13;10.47;;;;;;;0.19;100.00;96657.44;5113153;28;20552;-60
2023/01/27 06:59:35;;;;;;;11.20;10.00;;;;;;;0.19;100.00;96659.19;5111848;28;20207;-61
2023/01/27 07:02:02;;;;;;;12.93;9.93;;;;;;;0.25;100.00;96664.91;5111715;28;20518;-61
2023/01/27 07:04:28;;;;;;;13.50;10.60;;;;;;;0.22;100.00;96659.03;5111425;28;20210;-61
2023/01/27 07:06:55;;;;;;;15.10;10.93;;;;;;;0.23;100.00;96663.31;5112042;28;20215;-60
2023/01/27 07:09:21;;;;;;;13.40;10.70;;;;;;;0.20;100.00;96671.28;5111156;28;20221;-63
2023/01/27 07:11:50;;;;;;;12.73;10.60;;;;;;;0.27;100.00;96673.50;5111551;28;20214;-63
2023/01/27 07:14:17;;;;;;;12.53;10.60;;;;;;;0.30;100.00;96675.94;5111444;28;20298;-61
2023/01/27 07:16:43;;;;;;;13.50;11.10;;;;;;;0.23;100.00;96684.13;5110540;28;20198;-60
2023/01/27 07:19:11;;;;;;;14.10;11.53;;;;;;;0.28;100.00;96679.53;5111413;28;20202;-61
2023/01/27 07:21:37;;;;;;;12.90;10.50;;;;;;;0.20;100.00;96686.88;5120350;28;20304;-62
2023/01/27 07:24:06;;;;;;;21.73;12.27;;;;;;;0.24;100.00;96688.41;5122842;28;20213;-62
2023/01/27 07:26:33;;;;;;;18.33;10.77;;;;;;;0.18;100.00;96681.75;5118871;28;20217;-62
2023/01/27 07:29:01;;;;;;;13.83;11.17;;;;;;;0.24;100.00;96691.03;5117934;28;20207;-63
2023/01/27 07:31:27;;;;;;;15.73;11.13;;;;;;;0.25;100.00;96696.13;5127574;28;20224;-65
2023/01/27 07:33:54;;;;;;;14.83;11.57;;;;;;;0.24;100.00;96696.22;5132657;28;20195;-67
2023/01/27 07:36:20;;;;;;;16.37;11.63;;;;;;;0.32;100.00;96684.47;5122946;28;20215;-63
2023/01/27 07:38:49;;;;;;;13.37;11.17;;;;;;;0.32;100.00;96686.28;5122936;28;20195;-64
2023/01/27 07:41:15;;;;;;;13.93;11.23;;;;;;;0.37;100.00;96697.25;5114993;28;20561;-61
2023/01/27 07:43:42;;;;;;;14.10;11.40;;;;;;;0.26;100.00;96696.97;5113328;28;20225;-64
2023/01/27 07:46:10;;;;;;;14.87;12.10;;;;;;;0.26;100.00;96696.97;5110190;28;20639;-61
2023/01/27 07:48:36;;;;;;;18.40;12.97;;;;;;;0.30;100.00;96695.91;5111189;28;20535;-64
2023/01/27 07:51:03;;;;;;;16.27;12.33;;;;;;;0.33;100.00;96688.78;5111014;28;20202;-62
2023/01/27 07:53:29;;;;;;;15.30;11.20;;;;;;;0.30;100.00;96694.13;5110745;28;20205;-60
2023/01/27 07:55:59;;;;;;;15.13;11.93;;;;;;;0.23;100.00;96697.13;5110762;28;20669;-61
2023/01/27 07:58:25;;;;;;;13.83;11.63;;;;;;;0.28;100.00;96683.00;5113243;28;20566;-60
2023/01/27 08:00:52;;;;;;;14.13;11.57;;;;;;;0.25;100.00;96695.31;5113561;28;20244;-65
2023/01/27 08:03:24;;;;;;;14.27;11.50;;;;;;;0.26;100.00;96705.63;5114852;28;20225;-61
2023/01/27 08:05:51;;;;;;;14.33;10.77;;;;;;;0.24;100.00;96706.63;5114700;28;20206;-61
2023/01/27 08:08:18;;;;;;;14.87;11.27;;;;;;;0.25;100.00;96703.09;5114485;28;20210;-61
2023/01/27 08:10:48;;;;;;;14.87;12.43;;;;;;;0.29;100.00;96704.59;5116274;28;20203;-62
2023/01/27 08:13:14;;;;;;;16.30;13.03;;;;;;;0.35;100.00;96701.72;5115222;28;20211;-60
2023/01/27 08:15:41;;;;;;;18.53;12.50;;;;;;;0.42;100.00;96708.28;5113352;28;20222;-61
2023/01/27 08:18:09;;;;;;;13.83;11.13;;;;;;;0.32;100.00;96700.09;5114256;28;20214;-61
2023/01/27 08:20:37;;;;;;;15.33;12.03;;;;;;;0.28;100.00;96708.16;5113701;28;20641;-62
2023/01/27 08:23:03;;;;;;;15.00;11.93;;;;;;;0.31;100.00;96714.03;5114490;28;20234;-61
2023/01/27 08:25:30;;;;;;;16.83;12.50;;;;;;;0.30;100.00;96719.31;5113447;28;20222;-62
2023/01/27 08:27:56;;;;;;;16.07;11.87;;;;;;;0.30;100.00;96716.69;5114629;28;20196;-62
2023/01/27 08:30:23;;;;;;;15.87;11.87;;;;;;;0.34;100.00;96720.81;5113282;28;20232;-61
2023/01/27 08:32:50;;;;;;;16.73;12.43;;;;;;;0.36;100.00;96714.63;5114551;28;20197;-61
2023/01/27 08:35:17;;;;;;;14.50;11.57;;;;;;;0.40;100.00;96716.16;5114155;28;20194;-61
2023/01/27 08:37:46;;;;;;;17.73;11.83;;;;;;;0.39;100.00;96713.63;5114119;28;20549;-61
2023/01/27 08:40:14;;;;;;;15.47;11.57;;;;;;;0.38;100.00;96730.16;5113893;28;20203;-61
2023/01/27 08:42:40;;;;;;;17.63;11.73;;;;;;;0.38;100.00;96727.56;5113953;28;20233;-62
2023/01/27 08:45:08;;;;;;;18.10;11.97;;;;;;;0.42;100.00;96729.09;5113991;27;20225;-61
2023/01/27 08:47:34;;;;;;;15.90;12.17;;;;;;;0.44;100.00;96727.22;5114215;28;20207;-61
2023/01/27 08:50:01;;;;;;;21.63;12.67;;;;;;;0.40;100.00;96728.31;5113656;28;21440;-61
2023/01/27 08:52:29;;;;;;;18.13;11.83;;;;;;;0.39;100.00;96734.44;5114318;28;20239;-61
2023/01/27 08:54:57;;;;;;;24.20;13.17;;;;;;;0.32;100.00;96733.09;5113404;28;20213;-62
2023/01/27 08:57:24;;;;;;;14.77;12.20;;;;;;;0.30;100.00;96727.94;5113661;28;20212;-61
2023/01/27 08:59:51;;;;;;;20.93;13.27;;;;;;;0.32;100.00;96733.91;5112939;28;20269;-62
2023/01/27 09:02:17;;;;;;;19.07;12.33;;;;;;;0.40;100.00;96730.91;5112618;28;20235;-60
2023/01/27 09:04:44;;;;;;;30.33;13.17;;;;;;;0.39;100.00;96735.25;5113678;28;20226;-60
2023/01/27 09:07:11;;;;;;;19.27;11.93;;;;;;;0.45;100.00;96736.72;5111978;28;20206;-61
2023/01/27 09:09:37;;;;;;;16.87;12.17;;;;;;;0.45;100.00;96728.91;5112583;28;20644;-61
2023/01/27 09:12:06;;;;;;;17.57;11.90;;;;;;;0.53;100.00;96731.97;5113989;28;20275;-61
2023/01/27 09:14:32;;;;;;;19.83;12.17;;;;;;;0.43;100.00;96731.59;5112650;28;20200;-62
2023/01/27 09:16:58;;;;;;;14.60;11.90;;;;;;;0.32;100.00;96733.91;5113279;28;20196;-61
2023/01/27 09:19:25;;;;;;;19.17;12.57;;;;;;;0.37;100.00;96736.28;5113349;28;20207;-61
2023/01/27 09:21:52;;;;;;;14.97;10.73;;;;;;;0.36;100.00;96742.38;5113021;28;20230;-62
2023/01/27 09:24:19;;;;;;;16.40;12.37;;;;;;;0.41;100.00;96741.25;5112540;28;20203;-61
2023/01/27 09:26:45;;;;;;;13.47;11.30;;;;;;;0.46;100.00;96746.22;5113065;28;20208;-61
2023/01/27 09:29:13;;;;;;;17.57;11.87;;;;;;;0.42;100.00;96742.94;5112553;28;20332;-60
2023/01/27 09:31:40;;;;;;;15.90;11.47;;;;;;;0.53;100.00;96747.59;5113148;28;20217;-61
2023/01/27 09:34:09;;;;;;;15.27;10.90;;;;;;;0.52;99.62;96742.44;5112734;28;20203;-61
2023/01/27 09:36:39;;;;;;;14.07;10.97;;;;;;;0.54;100.00;96749.25;5113589;28;20583;-64
2023/01/27 09:39:09;;;;;;;14.80;11.47;;;;;;;0.51;99.56;96749.41;5113497;28;20219;-60
2023/01/27 09:41:52;;;;;;;13.77;11.03;;;;;;;0.42;99.71;96749.91;5123305;28;20210;-61
2023/01/27 09:44:48;;;;;;;14.40;11.10;;;;;;;0.46;99.38;96752.22;5122204;28;20204;-61
2023/01/27 09:47:26;;;;;;;12.07;9.70;;;;;;;0.58;99.78;96750.78;5129653;28;20199;-61
2023/01/27 09:50:06;;;;;;;14.10;9.90;;;;;;;0.59;99.02;96751.63;5119637;28;20216;-62
2023/01/27 09:52:45;;;;;;;14.77;10.40;;;;;;;0.58;99.20;96760.34;5112765;28;20199;-61
2023/01/27 09:55:16;;;;;;;13.43;10.50;;;;;;;0.62;98.05;96756.66;5111825;28;20670;-61
2023/01/27 09:57:50;;;;;;;15.87;10.63;;;;;;;0.69;98.71;96758.00;5111940;28;20208;-62
2023/01/27 10:00:26;;;;;;;12.43;9.67;;;;;;;0.65;98.18;96753.88;5112059;28;20633;-62
2023/01/27 10:03:05;;;;;;;15.90;10.60;;;;;;;0.72;99.83;96745.69;5110542;28;20357;-61
2023/01/27 10:05:42;;;;;;;13.57;9.77;;;;;;;0.77;99.24;96735.88;5112240;28;20204;-61
2023/01/27 10:08:27;;;;;;;12.23;9.47;;;;;;;0.84;98.11;96739.84;5112093;28;20191;-61
2023/01/27 10:11:06;;;;;;;12.27;9.83;;;;;;;0.86;98.10;96732.78;5111782;28;20239;-61
2023/01/27 10:13:41;;;;;;;13.03;10.40;;;;;;;0.83;97.60;96735.53;5112897;28;20230;-61
2023/01/27 10:16:22;;;;;;;14.37;9.80;;;;;;;0.83;96.43;96729.50;5113486;28;20202;-61
2023/01/27 10:19:06;;;;;;;13.87;9.93;;;;;;;0.74;97.13;96730.84;5114236;28;20263;-61
2023/01/27 10:21:40;;;;;;;11.97;9.80;;;;;;;0.78;97.29;96732.34;5120582;28;20198;-61
2023/01/27 10:24:12;;;;;;;13.67;9.90;;;;;;;0.81;97.30;96731.34;5119889;28;20214;-62
2023/01/27 10:26:41;;;;;;;12.93;9.80;;;;;;;0.79;97.30;96734.03;5120578;28;20219;-61
2023/01/27 10:29:09;;;;;;;13.97;9.93;;;;;;;0.83;97.30;96729.50;5120636;28;20211;-64
2023/01/27 10:31:42;;;;;;;13.37;9.93;;;;;;;0.79;97.92;96734.03;5116393;28;20616;-62
2023/01/27 10:34:16;;;;;;;13.10;9.83;;;;;;;0.81;99.95;96732.19;5117462;28;20213;-62
2023/01/27 10:36:46;;;;;;;12.60;9.23;;;;;;;0.78;99.67;96729.72;5118040;28;20200;-63
2023/01/27 10:39:20;;;;;;;15.97;9.60;;;;;;;0.82;99.81;96733.84;5113787;28;20203;-61
2023/01/27 10:41:56;;;;;;;15.73;9.30;;;;;;;0.75;99.75;96732.50;5115876;28;20640;-62
2023/01/27 10:44:45;;;;;;;14.77;9.37;;;;;;;0.75;98.88;96732.50;5116637;28;20203;-62
2023/01/27 10:47:18;;;;;;;12.87;9.07;;;;;;;0.86;99.60;96737.97;5110069;28;20211;-61
2023/01/27 10:49:50;;;;;;;12.97;9.63;;;;;;;0.92;99.03;96742.84;5110521;28;20204;-62
2023/01/27 10:52:19;;;;;;;10.27;8.50;;;;;;;0.94;98.75;96738.41;5111680;28;20190;-61
2023/01/27 10:54:52;;;;;;;9.90;8.23;;;;;;;0.94;97.69;96729.75;5110835;28;20207;-61
2023/01/27 10:57:21;;;;;;;13.20;9.03;;;;;;;1.04;97.58;96737.91;5112169;28;20208;-62
2023/01/27 10:59:53;;;;;;;16.93;9.43;;;;;;;1.11;97.49;96728.84;5132298;28;20379;-62
2023/01/27 11:02:25;;;;;;;12.80;8.90;;;;;;;1.10;96.62;96737.59;5133633;28;20232;-62
2023/01/27 11:04:54;;;;;;;13.00;9.00;;;;;;;1.04;95.46;96740.50;5124852;28;20192;-63
2023/01/27 11:07:22;;;;;;;9.73;8.43;;;;;;;1.03;94.98;96744.06;5111483;28;20222;-63
2023/01/27 11:09:54;;;;;;;11.97;9.07;;;;;;;1.10;94.90;96742.81;5110899;28;20219;-62
2023/01/27 11:12:26;;;;;;;10.73;8.53;;;;;;;1.11;94.88;96740.09;5111357;28;20203;-60
2023/01/27 11:14:53;;;;;;;11.43;8.30;;;;;;;1.15;94.44;96740.78;5111361;28;20202;-63
2023/01/27 11:17:27;;;;;;;9.40;8.33;;;;;;;1.19;94.15;96747.50;5111504;28;20207;-61
2023/01/27 11:19:58;;;;;;;9.57;7.70;;;;;;;1.21;94.52;96745.66;5110771;28;20244;-60
2023/01/27 11:22:29;;;;;;;14.53;8.50;;;;;;;1.20;93.31;96754.41;5111662;28;21311;-60
2023/01/27 11:25:01;;;;;;;12.50;8.13;;;;;;;1.17;93.29;96744.16;5110608;28;20238;-60
2023/01/27 11:27:37;;;;;;;9.70;8.70;;;;;;;0.99;92.29;96746.81;5111171;28;20203;-60
2023/01/27 11:30:09;;;;;;;11.67;7.83;;;;;;;0.97;92.92;96734.81;5111178;28;20196;-60
2023/01/27 11:32:42;;;;;;;10.53;7.57;;;;;;;1.04;92.61;96735.31;5113235;28;20207;-61
2023/01/27 11:35:11;;;;;;;9.47;8.07;;;;;;;1.03;91.91;96726.66;5114651;28;20206;-60
2023/01/27 11:37:39;;;;;;;9.73;8.27;;;;;;;1.08;91.63;96735.06;5115482;28;20204;-61
2023/01/27 11:40:14;;;;;;;10.63;8.50;;;;;;;1.05;91.44;96740.44;5114768;28;20208;-60
2023/01/27 11:42:41;;;;;;;10.07;7.80;;;;;;;1.07;91.20;96742.94;5114601;28;20214;-60
2023/01/27 11:45:14;;;;;;;11.43;8.07;;;;;;;1.11;92.19;96731.44;5114988;28;20200;-62
2023/01/27 11:47:42;;;;;;;9.13;7.77;;;;;;;1.07;91.40;96722.13;5114844;28;20211;-63
2023/01/27 11:50:14;;;;;;;10.53;8.37;;;;;;;1.09;92.02;96715.91;5115139;28;20197;-61
2023/01/27 11:52:40;;;;;;;10.20;8.40;;;;;;;1.07;90.94;96712.53;5114952;28;20861;-61
2023/01/27 11:55:15;;;;;;;9.83;8.23;;;;;;;1.14;91.11;96720.84;5114556;28;20199;-62
2023/01/27 11:57:43;;;;;;;10.27;8.60;;;;;;;1.12;91.00;96726.16;5114952;28;20226;-60
2023/01/27 12:00:19;;;;;;;10.07;8.27;;;;;;;1.22;92.17;96724.72;5114949;28;20291;-62
2023/01/27 12:02:53;;;;;;;9.63;8.63;;;;;;;1.04;90.87;96725.72;5113405;28;20227;-61
2023/01/27 12:05:25;;;;;;;11.47;8.60;;;;;;;1.18;91.05;96720.63;5114070;28;20208;-60